createdAt,value
2024-03-05T00:00:12.047Z,5.63
2024-03-05T00:00:45.652Z,5.63
2024-03-05T00:01:21.093Z,5.63
2024-03-05T00:01:35.521Z,5.62
2024-03-05T00:01:48.555Z,5.61
2024-03-05T00:02:01.727Z,5.62
2024-03-05T00:02:14.824Z,5.61
2024-03-05T00:02:27.904Z,5.61
2024-03-05T00:02:41.519Z,5.61
2024-03-05T00:02:54.511Z,5.61
2024-03-05T00:03:08.734Z,5.61
2024-03-05T00:03:21.786Z,5.60
2024-03-05T00:03:34.820Z,5.60
2024-03-05T00:03:47.768Z,5.60
2024-03-05T00:04:01.192Z,5.59
2024-03-05T00:04:14.623Z,5.59
2024-03-05T00:04:27.995Z,5.59
2024-03-05T00:04:42.340Z,5.58
2024-03-05T00:04:55.534Z,5.58
2024-03-05T00:05:09.972Z,5.56
2024-03-05T00:05:23.004Z,5.57
2024-03-05T00:05:36.285Z,5.56
2024-03-05T00:05:49.340Z,5.57
2024-03-05T00:06:02.428Z,5.55
2024-03-05T00:06:15.416Z,5.55
2024-03-05T00:06:30.373Z,5.54
2024-03-05T00:06:44.398Z,5.54
2024-03-05T00:06:57.405Z,5.55
2024-03-05T00:07:11.114Z,5.54
2024-03-05T00:07:24.159Z,5.53
2024-03-05T00:07:37.835Z,5.53
2024-03-05T00:07:52.488Z,5.53
2024-03-05T00:08:06.639Z,5.53
2024-03-05T00:08:19.633Z,5.52
2024-03-05T00:08:32.618Z,5.52
2024-03-05T00:08:45.599Z,5.52
2024-03-05T00:09:00.160Z,5.50
2024-03-05T00:09:13.393Z,5.50
2024-03-05T00:09:26.961Z,5.49
2024-03-05T00:09:40.044Z,5.48
2024-03-05T00:09:52.977Z,5.48
2024-03-05T00:10:06.850Z,5.48
2024-03-05T00:10:20.225Z,5.47
2024-03-05T00:10:34.289Z,5.45
2024-03-05T00:10:47.751Z,5.45
2024-03-05T00:11:01.326Z,5.45
2024-03-05T00:11:14.486Z,5.44
2024-03-05T00:11:27.906Z,5.45
2024-03-05T00:11:40.978Z,5.43
2024-03-05T00:11:54.144Z,5.43
2024-03-05T00:12:07.979Z,5.42
2024-03-05T00:12:22.077Z,5.42
2024-03-05T00:12:35.540Z,5.41
2024-03-05T00:12:48.522Z,5.41
2024-03-05T00:13:01.534Z,5.41
2024-03-05T00:13:14.645Z,5.42
2024-03-05T00:13:27.752Z,5.41
2024-03-05T00:13:40.801Z,5.41
2024-03-05T00:13:54.028Z,5.41
2024-03-05T00:14:07.092Z,5.41
2024-03-05T00:14:20.993Z,5.41
2024-03-05T00:14:34.986Z,5.41
2024-03-05T00:14:47.975Z,5.41
2024-03-05T00:15:01.271Z,5.40
2024-03-05T00:15:14.277Z,5.40
2024-03-05T00:15:28.201Z,5.39
2024-03-05T00:15:41.416Z,5.41
2024-03-05T00:15:54.542Z,5.40
2024-03-05T00:16:11.632Z,5.40
2024-03-05T00:16:28.639Z,5.41
2024-03-05T00:16:41.719Z,5.40
2024-03-05T00:16:55.063Z,5.40
2024-03-05T00:17:08.111Z,5.40
2024-03-05T00:17:21.067Z,5.39
2024-03-05T00:17:34.090Z,5.40
2024-03-05T00:17:47.121Z,5.40
2024-03-05T00:18:01.197Z,5.40
2024-03-05T00:18:14.248Z,5.39
2024-03-05T00:18:27.336Z,5.39
2024-03-05T00:18:40.485Z,5.39
2024-03-05T00:18:53.500Z,5.40
2024-03-05T00:19:07.581Z,5.39
2024-03-05T00:19:20.690Z,5.40
2024-03-05T00:19:33.782Z,5.39
2024-03-05T00:19:47.523Z,5.39
2024-03-05T00:20:02.197Z,5.39
2024-03-05T00:20:20.192Z,5.39
2024-03-05T00:20:33.846Z,5.39
2024-03-05T00:20:47.505Z,5.37
2024-03-05T00:21:00.477Z,5.38
2024-03-05T00:21:13.520Z,5.38
2024-03-05T00:21:26.461Z,5.38
2024-03-05T00:21:39.561Z,5.37
2024-03-05T00:21:53.886Z,5.38
2024-03-05T00:22:07.346Z,5.38
2024-03-05T00:22:20.734Z,5.38
2024-03-05T00:22:34.243Z,5.38
2024-03-05T00:22:47.871Z,5.37
2024-03-05T00:23:01.117Z,5.37
2024-03-05T00:23:14.273Z,5.37
2024-03-05T00:23:27.637Z,5.37
2024-03-05T00:23:40.974Z,5.37
2024-03-05T00:23:54.911Z,5.38
2024-03-05T00:24:07.905Z,5.37
2024-03-05T00:24:20.867Z,5.37
2024-03-05T00:24:33.831Z,5.36
2024-03-05T00:24:46.852Z,5.37
2024-03-05T00:25:00.128Z,5.37
2024-03-05T00:25:13.593Z,5.36
2024-03-05T00:25:28.394Z,5.36
2024-03-05T00:25:41.510Z,5.36
2024-03-05T00:25:54.664Z,5.36
2024-03-05T00:26:08.001Z,5.36
2024-03-05T00:26:22.898Z,5.36
2024-03-05T00:26:36.325Z,5.35
2024-03-05T00:26:49.381Z,5.36
2024-03-05T00:27:02.617Z,5.36
2024-03-05T00:27:15.556Z,5.36
2024-03-05T00:27:29.579Z,5.36
2024-03-05T00:27:42.544Z,5.36
2024-03-05T00:27:55.956Z,5.37
2024-03-05T00:28:09.243Z,5.36
2024-03-05T00:28:22.276Z,5.38
2024-03-05T00:28:35.815Z,5.37
2024-03-05T00:28:48.876Z,5.35
2024-03-05T00:29:03.726Z,5.37
2024-03-05T00:29:17.824Z,5.36
2024-03-05T00:29:30.841Z,5.36
2024-03-05T00:29:43.781Z,5.36
2024-03-05T00:29:56.799Z,5.36
2024-03-05T00:30:13.365Z,5.36
2024-03-05T00:30:26.384Z,5.36
2024-03-05T00:30:39.792Z,5.36
2024-03-05T00:30:52.789Z,5.36
2024-03-05T00:31:06.791Z,5.36
2024-03-05T00:31:20.622Z,5.36
2024-03-05T00:31:35.461Z,5.36
2024-03-05T00:31:48.504Z,5.35
2024-03-05T00:32:01.631Z,5.34
2024-03-05T00:32:14.696Z,5.35
2024-03-05T00:32:27.760Z,5.35
2024-03-05T00:32:41.189Z,5.34
2024-03-05T00:32:54.391Z,5.33
2024-03-05T00:33:08.721Z,5.32
2024-03-05T00:33:21.734Z,5.32
2024-03-05T00:33:34.821Z,5.33
2024-03-05T00:33:47.944Z,5.32
2024-03-05T00:34:00.999Z,5.32
2024-03-05T00:34:14.731Z,5.31
2024-03-05T00:34:27.823Z,5.31
2024-03-05T00:34:40.818Z,5.31
2024-03-05T00:34:53.906Z,5.31
2024-03-05T00:35:08.951Z,5.31
2024-03-05T00:35:22.110Z,5.30
2024-03-05T00:35:35.462Z,5.29
2024-03-05T00:35:48.580Z,5.29
2024-03-05T00:36:01.708Z,5.29
2024-03-05T00:36:15.049Z,5.30
2024-03-05T00:36:28.778Z,5.29
2024-03-05T00:36:42.735Z,5.29
2024-03-05T00:36:55.726Z,5.27
2024-03-05T00:37:08.884Z,5.29
2024-03-05T00:37:22.140Z,5.27
2024-03-05T00:37:37.208Z,5.27
2024-03-05T00:37:51.059Z,5.26
2024-03-05T00:38:09.277Z,5.26
2024-03-05T00:38:33.447Z,5.27
2024-03-05T00:38:47.996Z,5.26
2024-03-05T00:39:01.451Z,5.26
2024-03-05T00:39:14.467Z,5.26
2024-03-05T00:39:27.450Z,5.25
2024-03-05T00:39:40.430Z,5.25
2024-03-05T00:39:53.460Z,5.26
2024-03-05T00:40:10.047Z,5.25
2024-03-05T00:40:24.258Z,5.25
2024-03-05T00:40:37.264Z,5.24
2024-03-05T00:40:50.390Z,5.24
2024-03-05T00:41:03.486Z,5.24
2024-03-05T00:41:18.347Z,5.24
2024-03-05T00:41:31.490Z,5.24
2024-03-05T00:41:44.786Z,5.24
2024-03-05T00:41:57.828Z,5.23
2024-03-05T00:42:11.915Z,5.23
2024-03-05T00:42:24.897Z,5.24
2024-03-05T00:42:38.475Z,5.25
2024-03-05T00:42:51.502Z,5.23
2024-03-05T00:43:04.916Z,5.23
2024-03-05T00:43:17.960Z,5.24
2024-03-05T00:43:31.178Z,5.23
2024-03-05T00:43:44.509Z,5.24
2024-03-05T00:43:58.588Z,5.24
2024-03-05T00:44:12.367Z,5.24
2024-03-05T00:44:25.363Z,5.25
2024-03-05T00:44:38.546Z,5.24
2024-03-05T00:44:51.557Z,5.24
2024-03-05T00:45:08.650Z,5.23
2024-03-05T00:45:23.121Z,5.22
2024-03-05T00:45:36.936Z,5.22
2024-03-05T00:45:51.626Z,5.23
2024-03-05T00:46:04.850Z,5.23
2024-03-05T00:46:18.142Z,5.22
2024-03-05T00:46:31.395Z,5.23
2024-03-05T00:46:45.791Z,5.22
2024-03-05T00:46:58.740Z,5.23
2024-03-05T00:47:11.758Z,5.23
2024-03-05T00:47:24.782Z,5.23
2024-03-05T00:47:39.188Z,5.23
2024-03-05T00:47:52.841Z,5.23
2024-03-05T00:48:07.116Z,5.23
2024-03-05T00:48:20.581Z,5.22
2024-03-05T00:48:33.644Z,5.22
2024-03-05T00:48:46.966Z,5.23
2024-03-05T00:48:59.941Z,5.23
2024-03-05T00:49:13.917Z,5.23
2024-03-05T00:49:28.282Z,5.23
2024-03-05T00:49:41.370Z,5.23
2024-03-05T00:49:56.626Z,5.23
2024-03-05T00:50:14.323Z,5.23
2024-03-05T00:50:27.338Z,5.24
2024-03-05T00:50:41.118Z,5.24
2024-03-05T00:50:54.150Z,5.23
2024-03-05T00:51:09.945Z,5.24
2024-03-05T00:51:24.649Z,5.24
2024-03-05T00:51:37.542Z,5.24
2024-03-05T00:51:50.839Z,5.23
2024-03-05T00:52:04.663Z,5.22
2024-03-05T00:52:17.603Z,5.22
2024-03-05T00:52:31.766Z,5.21
2024-03-05T00:52:44.922Z,5.21
2024-03-05T00:52:57.906Z,5.21
2024-03-05T00:53:12.095Z,5.20
2024-03-05T00:53:25.103Z,5.21
2024-03-05T00:53:38.245Z,5.19
2024-03-05T00:53:52.209Z,5.20
2024-03-05T00:54:05.245Z,5.20
2024-03-05T00:54:18.212Z,5.19
2024-03-05T00:54:31.253Z,5.19
2024-03-05T00:54:44.252Z,5.19
2024-03-05T00:54:58.570Z,5.20
2024-03-05T00:55:11.607Z,5.20
2024-03-05T00:55:25.751Z,5.20
2024-03-05T00:55:38.947Z,5.19
2024-03-05T00:55:52.346Z,5.20
2024-03-05T00:56:06.829Z,5.19
2024-03-05T00:56:19.941Z,5.19
2024-03-05T00:56:32.919Z,5.19
2024-03-05T00:56:45.972Z,5.20
2024-03-05T00:56:58.968Z,5.20
2024-03-05T00:57:13.045Z,5.20
2024-03-05T00:57:27.066Z,5.20
2024-03-05T00:57:40.211Z,5.19
2024-03-05T00:57:53.585Z,5.20
2024-03-05T00:58:08.766Z,5.21
2024-03-05T00:58:22.191Z,5.20
2024-03-05T00:58:35.250Z,5.20
2024-03-05T00:58:48.560Z,5.20
2024-03-05T00:59:01.684Z,5.21
2024-03-05T00:59:14.757Z,5.21
2024-03-05T00:59:29.220Z,5.21
2024-03-05T00:59:42.194Z,5.21
2024-03-05T00:59:55.175Z,5.21
2024-03-05T01:00:09.636Z,5.21
2024-03-05T01:00:25.522Z,5.21
2024-03-05T01:00:38.541Z,5.20
2024-03-05T01:00:51.565Z,5.20
2024-03-05T01:01:05.681Z,5.20
2024-03-05T01:01:19.867Z,5.21
2024-03-05T01:01:32.979Z,5.21
2024-03-05T01:01:47.457Z,5.22
2024-03-05T01:02:03.013Z,5.22
2024-03-05T01:02:16.959Z,5.21
2024-03-05T01:02:30.154Z,5.22
2024-03-05T01:02:43.219Z,5.22
2024-03-05T01:02:57.293Z,5.22
2024-03-05T01:03:11.813Z,5.22
2024-03-05T01:03:24.933Z,5.23
2024-03-05T01:03:38.981Z,5.23
2024-03-05T01:03:51.955Z,5.24
2024-03-05T01:04:06.266Z,5.23
2024-03-05T01:04:20.027Z,5.23
2024-03-05T01:04:32.967Z,5.24
2024-03-05T01:04:46.930Z,5.23
2024-03-05T01:05:00.166Z,5.23
2024-03-05T01:05:13.826Z,5.23
2024-03-05T01:05:26.830Z,5.25
2024-03-05T01:05:39.776Z,5.25
2024-03-05T01:05:52.665Z,5.25
2024-03-05T01:06:07.386Z,5.25
2024-03-05T01:06:20.380Z,5.25
2024-03-05T01:06:33.593Z,5.25
2024-03-05T01:06:47.547Z,5.25
2024-03-05T01:07:00.501Z,5.24
2024-03-05T01:07:13.437Z,5.26
2024-03-05T01:07:26.455Z,5.25
2024-03-05T01:07:39.823Z,5.25
2024-03-05T01:07:52.849Z,5.26
2024-03-05T01:08:06.280Z,5.25
2024-03-05T01:08:19.303Z,5.25
2024-03-05T01:08:32.284Z,5.26
2024-03-05T01:08:46.255Z,5.26
2024-03-05T01:08:59.141Z,5.26
2024-03-05T01:09:17.125Z,5.26
2024-03-05T01:09:31.904Z,5.26
2024-03-05T01:09:44.850Z,5.26
2024-03-05T01:09:57.827Z,5.25
2024-03-05T01:10:11.435Z,5.26
2024-03-05T01:10:24.428Z,5.26
2024-03-05T01:10:37.599Z,5.26
2024-03-05T01:10:50.659Z,5.27
2024-03-05T01:11:04.904Z,5.27
2024-03-05T01:11:17.897Z,5.27
2024-03-05T01:11:31.648Z,5.28
2024-03-05T01:11:44.666Z,5.28
2024-03-05T01:11:57.894Z,5.27
2024-03-05T01:12:11.212Z,5.28
2024-03-05T01:12:24.195Z,5.28
2024-03-05T01:12:37.390Z,5.29
2024-03-05T01:12:51.445Z,5.28
2024-03-05T01:13:04.697Z,5.28
2024-03-05T01:13:20.935Z,5.28
2024-03-05T01:13:35.203Z,5.28
2024-03-05T01:13:48.557Z,5.28
2024-03-05T01:14:01.737Z,5.29
2024-03-05T01:14:15.801Z,5.28
2024-03-05T01:14:29.801Z,5.29
2024-03-05T01:14:43.279Z,5.28
2024-03-05T01:14:56.390Z,5.29
2024-03-05T01:15:10.128Z,5.29
2024-03-05T01:15:23.100Z,5.29
2024-03-05T01:15:36.157Z,5.30
2024-03-05T01:15:49.183Z,5.29
2024-03-05T01:16:02.189Z,5.28
2024-03-05T01:16:15.366Z,5.30
2024-03-05T01:16:29.531Z,5.29
2024-03-05T01:16:42.898Z,5.29
2024-03-05T01:16:57.387Z,5.30
2024-03-05T01:17:12.792Z,5.29
2024-03-05T01:17:28.222Z,5.29
2024-03-05T01:17:41.272Z,5.28
2024-03-05T01:17:54.793Z,5.29
2024-03-05T01:18:08.005Z,5.29
2024-03-05T01:18:21.800Z,5.29
2024-03-05T01:18:35.795Z,5.29
2024-03-05T01:18:48.854Z,5.29
2024-03-05T01:19:01.940Z,5.29
2024-03-05T01:19:15.132Z,5.28
2024-03-05T01:19:28.118Z,5.28
2024-03-05T01:19:41.354Z,5.28
2024-03-05T01:19:54.808Z,5.28
2024-03-05T01:20:17.166Z,5.28
2024-03-05T01:20:30.514Z,5.28
2024-03-05T01:20:44.620Z,5.29
2024-03-05T01:20:57.883Z,5.28
2024-03-05T01:21:10.846Z,5.29
2024-03-05T01:21:23.769Z,5.29
2024-03-05T01:21:36.680Z,5.29
2024-03-05T01:21:49.637Z,5.29
2024-03-05T01:22:02.838Z,5.29
2024-03-05T01:22:15.862Z,5.29
2024-03-05T01:22:28.948Z,5.29
2024-03-05T01:22:41.966Z,5.30
2024-03-05T01:22:56.017Z,5.29
2024-03-05T01:23:11.402Z,5.30
2024-03-05T01:23:25.503Z,5.30
2024-03-05T01:23:39.516Z,5.29
2024-03-05T01:23:52.694Z,5.30
2024-03-05T01:24:08.273Z,5.30
2024-03-05T01:24:21.529Z,5.30
2024-03-05T01:24:34.794Z,5.30
2024-03-05T01:24:48.740Z,5.30
2024-03-05T01:25:02.812Z,5.30
2024-03-05T01:25:18.432Z,5.31
2024-03-05T01:25:31.781Z,5.30
2024-03-05T01:25:45.054Z,5.31
2024-03-05T01:26:00.073Z,5.31
2024-03-05T01:26:13.741Z,5.32
2024-03-05T01:26:26.699Z,5.31
2024-03-05T01:26:40.282Z,5.32
2024-03-05T01:26:54.817Z,5.32
2024-03-05T01:27:07.858Z,5.31
2024-03-05T01:27:21.608Z,5.32
2024-03-05T01:27:34.858Z,5.33
2024-03-05T01:27:47.815Z,5.33
2024-03-05T01:28:01.113Z,5.33
2024-03-05T01:28:16.441Z,5.33
2024-03-05T01:28:29.587Z,5.33
2024-03-05T01:28:42.942Z,5.34
2024-03-05T01:28:57.852Z,5.33
2024-03-05T01:29:13.522Z,5.33
2024-03-05T01:29:26.545Z,5.35
2024-03-05T01:29:41.767Z,5.34
2024-03-05T01:29:54.812Z,5.33
2024-03-05T01:30:12.015Z,5.33
2024-03-05T01:30:25.008Z,5.33
2024-03-05T01:30:41.371Z,5.34
2024-03-05T01:30:54.351Z,5.34
2024-03-05T01:31:13.274Z,5.33
2024-03-05T01:31:27.584Z,5.34
2024-03-05T01:31:40.663Z,5.34
2024-03-05T01:31:58.120Z,5.33
2024-03-05T01:32:14.248Z,5.35
2024-03-05T01:32:29.826Z,5.35
2024-03-05T01:32:44.989Z,5.35
2024-03-05T01:32:58.502Z,5.35
2024-03-05T01:33:21.010Z,5.35
2024-03-05T01:33:37.388Z,5.35
2024-03-05T01:33:50.858Z,5.35
2024-03-05T01:34:04.594Z,5.36
2024-03-05T01:34:17.562Z,5.36
2024-03-05T01:34:30.696Z,5.36
2024-03-05T01:34:44.661Z,5.35
2024-03-05T01:34:58.206Z,5.37
2024-03-05T01:35:12.534Z,5.37
2024-03-05T01:35:27.018Z,5.37
2024-03-05T01:35:42.358Z,5.37
2024-03-05T01:35:55.531Z,5.38
2024-03-05T01:36:11.784Z,5.38
2024-03-05T01:36:26.568Z,5.38
2024-03-05T01:36:39.801Z,5.38
2024-03-05T01:36:58.326Z,5.39
2024-03-05T01:37:12.152Z,5.38
2024-03-05T01:37:25.202Z,5.38
2024-03-05T01:37:39.333Z,5.38
2024-03-05T01:37:52.780Z,5.38
2024-03-05T01:38:05.731Z,5.39
2024-03-05T01:38:18.713Z,5.39
2024-03-05T01:38:31.844Z,5.39
2024-03-05T01:38:44.778Z,5.38
2024-03-05T01:38:58.025Z,5.39
2024-03-05T01:39:10.943Z,5.38
2024-03-05T01:39:25.813Z,5.38
2024-03-05T01:39:39.058Z,5.39
2024-03-05T01:39:53.010Z,5.38
2024-03-05T01:40:07.352Z,5.39
2024-03-05T01:40:20.974Z,5.39
2024-03-05T01:40:33.947Z,5.39
2024-03-05T01:40:47.006Z,5.39
2024-03-05T01:40:59.970Z,5.40
2024-03-05T01:41:13.009Z,5.40
2024-03-05T01:41:26.033Z,5.40
2024-03-05T01:41:39.198Z,5.41
2024-03-05T01:41:53.743Z,5.41
2024-03-05T01:42:08.711Z,5.41
2024-03-05T01:42:22.443Z,5.42
2024-03-05T01:42:35.433Z,5.41
2024-03-05T01:42:48.359Z,5.41
2024-03-05T01:43:01.304Z,5.43
2024-03-05T01:43:14.244Z,5.42
2024-03-05T01:43:27.305Z,5.41
2024-03-05T01:43:41.934Z,5.42
2024-03-05T01:43:56.030Z,5.42
2024-03-05T01:44:09.042Z,5.42
2024-03-05T01:44:22.285Z,5.42
2024-03-05T01:44:35.392Z,5.43
2024-03-05T01:44:48.820Z,5.42
2024-03-05T01:45:01.836Z,5.43
2024-03-05T01:45:14.801Z,5.43
2024-03-05T01:45:27.745Z,5.43
2024-03-05T01:45:40.735Z,5.44
2024-03-05T01:45:55.329Z,5.45
2024-03-05T01:46:15.283Z,5.43
2024-03-05T01:46:29.711Z,5.44
2024-03-05T01:46:42.692Z,5.44
2024-03-05T01:46:57.792Z,5.44
2024-03-05T01:47:12.596Z,5.44
2024-03-05T01:47:25.923Z,5.43
2024-03-05T01:47:39.366Z,5.45
2024-03-05T01:47:53.772Z,5.45
2024-03-05T01:48:07.352Z,5.45
2024-03-05T01:48:22.621Z,5.46
2024-03-05T01:48:35.624Z,5.46
2024-03-05T01:48:48.994Z,5.46
2024-03-05T01:49:02.172Z,5.46
2024-03-05T01:49:15.834Z,5.46
2024-03-05T01:49:30.541Z,5.46
2024-03-05T01:49:43.617Z,5.46
2024-03-05T01:49:56.909Z,5.48
2024-03-05T01:50:11.877Z,5.47
2024-03-05T01:50:25.116Z,5.47
2024-03-05T01:50:38.607Z,5.47
2024-03-05T01:50:51.900Z,5.47
2024-03-05T01:51:06.554Z,5.47
2024-03-05T01:51:21.073Z,5.47
2024-03-05T01:51:34.180Z,5.48
2024-03-05T01:51:47.328Z,5.48
2024-03-05T01:52:02.295Z,5.48
2024-03-05T01:52:16.405Z,5.47
2024-03-05T01:52:29.822Z,5.48
2024-03-05T01:52:45.180Z,5.48
2024-03-05T01:52:58.736Z,5.48
2024-03-05T01:53:15.853Z,5.48
2024-03-05T01:53:29.199Z,5.48
2024-03-05T01:53:43.387Z,5.48
2024-03-05T01:53:56.358Z,5.49
2024-03-05T01:54:10.342Z,5.48
2024-03-05T01:54:25.166Z,5.48
2024-03-05T01:54:38.267Z,5.48
2024-03-05T01:54:52.525Z,5.49
2024-03-05T01:55:11.379Z,5.48
2024-03-05T01:55:26.089Z,5.47
2024-03-05T01:55:40.578Z,5.47
2024-03-05T01:55:55.159Z,5.48
2024-03-05T01:56:08.523Z,5.48
2024-03-05T01:56:23.504Z,5.48
2024-03-05T01:56:36.870Z,5.48
2024-03-05T01:56:53.805Z,5.48
2024-03-05T01:57:07.235Z,5.46
2024-03-05T01:57:22.810Z,5.50
2024-03-05T01:57:36.209Z,5.48
2024-03-05T01:57:52.357Z,5.49
2024-03-05T01:58:07.631Z,5.49
2024-03-05T01:58:22.119Z,5.49
2024-03-05T01:58:35.710Z,5.49
2024-03-05T01:58:48.669Z,5.50
2024-03-05T01:59:02.965Z,5.50
2024-03-05T01:59:16.838Z,5.50
2024-03-05T01:59:30.316Z,5.51
2024-03-05T01:59:43.385Z,5.51
2024-03-05T01:59:56.964Z,5.50
2024-03-05T02:00:12.371Z,5.51
2024-03-05T02:00:27.631Z,5.51
2024-03-05T02:00:40.687Z,5.50
2024-03-05T02:00:53.991Z,5.51
2024-03-05T02:01:11.825Z,5.51
2024-03-05T02:01:26.216Z,5.51
2024-03-05T02:01:39.412Z,5.51
2024-03-05T02:01:53.825Z,5.52
2024-03-05T02:02:07.536Z,5.52
2024-03-05T02:02:24.488Z,5.53
2024-03-05T02:02:37.983Z,5.52
2024-03-05T02:02:51.816Z,5.53
2024-03-05T02:03:05.530Z,5.52
2024-03-05T02:03:18.965Z,5.52
2024-03-05T02:03:33.401Z,5.52
2024-03-05T02:03:46.880Z,5.52
2024-03-05T02:04:00.385Z,5.51
2024-03-05T02:04:14.779Z,5.52
2024-03-05T02:04:28.924Z,5.51
2024-03-05T02:04:44.104Z,5.51
2024-03-05T02:04:58.485Z,5.50
2024-03-05T02:05:13.953Z,5.50
2024-03-05T02:05:26.997Z,5.50
2024-03-05T02:05:42.496Z,5.50
2024-03-05T02:06:00.959Z,5.50
2024-03-05T02:06:16.149Z,5.50
2024-03-05T02:06:32.387Z,5.50
2024-03-05T02:06:46.332Z,5.50
2024-03-05T02:07:03.552Z,5.50
2024-03-05T02:07:19.025Z,5.50
2024-03-05T02:07:33.758Z,5.49
2024-03-05T02:07:47.467Z,5.49
2024-03-05T02:08:00.605Z,5.50
2024-03-05T02:08:17.965Z,5.50
2024-03-05T02:08:32.713Z,5.50
2024-03-05T02:08:45.683Z,5.50
2024-03-05T02:09:01.028Z,5.49
2024-03-05T02:09:14.019Z,5.49
2024-03-05T02:09:27.011Z,5.50
2024-03-05T02:09:40.369Z,5.50
2024-03-05T02:09:55.359Z,5.50
2024-03-05T02:10:09.740Z,5.49
2024-03-05T02:10:23.905Z,5.50
2024-03-05T02:10:36.961Z,5.50
2024-03-05T02:10:50.061Z,5.50
2024-03-05T02:11:03.192Z,5.50
2024-03-05T02:11:16.673Z,5.51
2024-03-05T02:11:33.387Z,5.51
2024-03-05T02:11:52.911Z,5.51
2024-03-05T02:12:13.000Z,5.51
2024-03-05T02:12:26.152Z,5.51
2024-03-05T02:12:39.166Z,5.51
2024-03-05T02:12:52.151Z,5.51
2024-03-05T02:13:05.373Z,5.51
2024-03-05T02:13:18.511Z,5.51
2024-03-05T02:13:32.853Z,5.52
2024-03-05T02:13:45.972Z,5.52
2024-03-05T02:14:00.231Z,5.52
2024-03-05T02:14:13.467Z,5.53
2024-03-05T02:14:27.943Z,5.52
2024-03-05T02:14:42.016Z,5.53
2024-03-05T02:14:55.404Z,5.54
2024-03-05T02:15:12.571Z,5.53
2024-03-05T02:15:25.796Z,5.53
2024-03-05T02:15:38.955Z,5.54
2024-03-05T02:15:53.120Z,5.54
2024-03-05T02:16:09.872Z,5.54
2024-03-05T02:16:22.967Z,5.54
2024-03-05T02:16:36.072Z,5.54
2024-03-05T02:16:49.627Z,5.53
2024-03-05T02:17:02.987Z,5.54
2024-03-05T02:17:18.060Z,5.54
2024-03-05T02:17:32.828Z,5.53
2024-03-05T02:17:45.815Z,5.55
2024-03-05T02:17:58.840Z,5.54
2024-03-05T02:18:13.406Z,5.54
2024-03-05T02:18:27.507Z,5.54
2024-03-05T02:18:40.537Z,5.56
2024-03-05T02:18:53.527Z,5.55
2024-03-05T02:19:06.512Z,5.55
2024-03-05T02:19:19.553Z,5.56
2024-03-05T02:19:32.858Z,5.55
2024-03-05T02:19:49.608Z,5.55
2024-03-05T02:20:02.790Z,5.55
2024-03-05T02:20:15.857Z,5.54
2024-03-05T02:20:31.053Z,5.54
2024-03-05T02:20:45.123Z,5.54
2024-03-05T02:21:02.195Z,5.54
2024-03-05T02:21:20.789Z,5.54
2024-03-05T02:21:33.790Z,5.54
2024-03-05T02:21:47.434Z,5.54
2024-03-05T02:22:04.325Z,5.55
2024-03-05T02:22:17.833Z,5.54
2024-03-05T02:22:32.143Z,5.54
2024-03-05T02:22:47.589Z,5.54
2024-03-05T02:23:00.855Z,5.54
2024-03-05T02:23:13.822Z,5.54
2024-03-05T02:23:26.802Z,5.54
2024-03-05T02:23:39.733Z,5.54
2024-03-05T02:23:52.676Z,5.55
2024-03-05T02:24:07.296Z,5.53
2024-03-05T02:24:20.279Z,5.54
2024-03-05T02:24:33.410Z,5.54
2024-03-05T02:24:46.369Z,5.54
2024-03-05T02:24:59.416Z,5.54
2024-03-05T02:25:13.290Z,5.54
2024-03-05T02:25:27.837Z,5.54
2024-03-05T02:25:41.834Z,5.54
2024-03-05T02:25:56.417Z,5.54
2024-03-05T02:26:09.781Z,5.54
2024-03-05T02:26:25.124Z,5.54
2024-03-05T02:26:38.631Z,5.55
2024-03-05T02:26:51.949Z,5.55
2024-03-05T02:27:11.899Z,5.54
2024-03-05T02:27:34.057Z,5.54
2024-03-05T02:27:50.789Z,5.54
2024-03-05T02:28:05.512Z,5.53
2024-03-05T02:28:19.154Z,5.53
2024-03-05T02:28:33.259Z,5.53
2024-03-05T02:28:48.952Z,5.53
2024-03-05T02:29:03.291Z,5.53
2024-03-05T02:29:16.309Z,5.53
2024-03-05T02:29:30.199Z,5.54
2024-03-05T02:29:44.074Z,5.53
2024-03-05T02:29:57.158Z,5.53
2024-03-05T02:30:12.139Z,5.53
2024-03-05T02:30:26.125Z,5.54
2024-03-05T02:30:41.628Z,5.54
2024-03-05T02:30:54.824Z,5.53
2024-03-05T02:31:11.042Z,5.54
2024-03-05T02:31:24.500Z,5.54
2024-03-05T02:31:37.804Z,5.54
2024-03-05T02:31:51.959Z,5.54
2024-03-05T02:32:05.515Z,5.54
2024-03-05T02:32:18.494Z,5.54
2024-03-05T02:32:32.188Z,5.55
2024-03-05T02:32:45.481Z,5.54
2024-03-05T02:33:00.512Z,5.54
2024-03-05T02:33:14.706Z,5.55
2024-03-05T02:33:27.902Z,5.54
2024-03-05T02:33:43.452Z,5.54
2024-03-05T02:33:56.920Z,5.56
2024-03-05T02:34:09.995Z,5.54
2024-03-05T02:34:23.017Z,5.56
2024-03-05T02:34:35.978Z,5.54
2024-03-05T02:34:50.470Z,5.56
2024-03-05T02:35:03.560Z,5.56
2024-03-05T02:35:16.672Z,5.54
2024-03-05T02:35:30.646Z,5.57
2024-03-05T02:35:45.630Z,5.57
2024-03-05T02:35:59.693Z,5.56
2024-03-05T02:36:14.063Z,5.56
2024-03-05T02:36:27.623Z,5.57
2024-03-05T02:36:40.540Z,5.57
2024-03-05T02:36:53.503Z,5.57
2024-03-05T02:37:06.697Z,5.57
2024-03-05T02:37:19.707Z,5.58
2024-03-05T02:37:34.347Z,5.57
2024-03-05T02:37:47.358Z,5.58
2024-03-05T02:38:00.571Z,5.57
2024-03-05T02:38:13.850Z,5.56
2024-03-05T02:38:26.769Z,5.56
2024-03-05T02:38:39.685Z,5.56
2024-03-05T02:38:52.653Z,5.56
2024-03-05T02:39:08.589Z,5.57
2024-03-05T02:39:24.409Z,5.56
2024-03-05T02:39:37.741Z,5.56
2024-03-05T02:39:50.891Z,5.56
2024-03-05T02:40:07.035Z,5.56
2024-03-05T02:40:20.137Z,5.57
2024-03-05T02:40:33.220Z,5.56
2024-03-05T02:40:47.189Z,5.57
2024-03-05T02:41:00.223Z,5.57
2024-03-05T02:41:13.201Z,5.57
2024-03-05T02:41:26.191Z,5.57
2024-03-05T02:41:39.484Z,5.57
2024-03-05T02:41:52.420Z,5.57
2024-03-05T02:42:06.304Z,5.57
2024-03-05T02:42:20.657Z,5.58
2024-03-05T02:42:33.620Z,5.56
2024-03-05T02:42:46.616Z,5.57
2024-03-05T02:43:00.063Z,5.56
2024-03-05T02:43:13.298Z,5.57
2024-03-05T02:43:26.673Z,5.56
2024-03-05T02:43:39.740Z,5.56
2024-03-05T02:43:53.810Z,5.55
2024-03-05T02:44:06.896Z,5.55
2024-03-05T02:44:20.050Z,5.57
2024-03-05T02:44:33.353Z,5.55
2024-03-05T02:44:46.299Z,5.57
2024-03-05T02:44:59.307Z,5.57
2024-03-05T02:45:12.531Z,5.57
2024-03-05T02:45:25.530Z,5.57
2024-03-05T02:45:39.579Z,5.57
2024-03-05T02:45:52.548Z,5.57
2024-03-05T02:46:05.478Z,5.58
2024-03-05T02:46:18.433Z,5.57
2024-03-05T02:46:31.570Z,5.58
2024-03-05T02:46:44.893Z,5.58
2024-03-05T02:46:57.998Z,5.57
2024-03-05T02:47:12.563Z,5.58
2024-03-05T02:47:25.636Z,5.58
2024-03-05T02:47:42.329Z,5.58
2024-03-05T02:47:55.516Z,5.58
2024-03-05T02:48:10.492Z,5.59
2024-03-05T02:48:24.045Z,5.58
2024-03-05T02:48:37.180Z,5.58
2024-03-05T02:48:50.102Z,5.59
2024-03-05T02:49:04.868Z,5.57
2024-03-05T02:49:17.906Z,5.58
2024-03-05T02:49:31.932Z,5.58
2024-03-05T02:49:44.835Z,5.58
2024-03-05T02:49:57.885Z,5.58
2024-03-05T02:50:11.948Z,5.57
2024-03-05T02:50:25.487Z,5.57
2024-03-05T02:50:38.571Z,5.58
2024-03-05T02:50:52.494Z,5.57
2024-03-05T02:51:06.014Z,5.58
2024-03-05T02:51:20.931Z,5.58
2024-03-05T02:51:33.936Z,5.57
2024-03-05T02:51:47.824Z,5.57
2024-03-05T02:52:00.840Z,5.58
2024-03-05T02:52:14.949Z,5.57
2024-03-05T02:52:29.693Z,5.57
2024-03-05T02:52:43.133Z,5.58
2024-03-05T02:52:58.459Z,5.58
2024-03-05T02:53:11.664Z,5.58
2024-03-05T02:53:25.681Z,5.58
2024-03-05T02:53:38.810Z,5.58
2024-03-05T02:53:52.284Z,5.58
2024-03-05T02:54:05.356Z,5.59
2024-03-05T02:54:18.330Z,5.59
2024-03-05T02:54:31.311Z,5.58
2024-03-05T02:54:46.868Z,5.59
2024-03-05T02:54:59.977Z,5.59
2024-03-05T02:55:14.033Z,5.58
2024-03-05T02:55:28.924Z,5.59
2024-03-05T02:55:42.710Z,5.59
2024-03-05T02:55:55.868Z,5.59
2024-03-05T02:56:11.493Z,5.61
2024-03-05T02:56:24.626Z,5.61
2024-03-05T02:56:37.611Z,5.60
2024-03-05T02:56:50.873Z,5.61
2024-03-05T02:57:04.165Z,5.62
2024-03-05T02:57:17.101Z,5.62
2024-03-05T02:57:32.748Z,5.62
2024-03-05T02:57:45.924Z,5.62
2024-03-05T02:57:58.811Z,5.63
2024-03-05T02:58:12.358Z,5.63
2024-03-05T02:58:26.773Z,5.64
2024-03-05T02:58:39.891Z,5.62
2024-03-05T02:58:52.883Z,5.62
2024-03-05T02:59:05.842Z,5.63
2024-03-05T02:59:19.893Z,5.63
2024-03-05T02:59:32.968Z,5.63
2024-03-05T02:59:45.893Z,5.64
2024-03-05T02:59:58.835Z,5.64
2024-03-05T03:00:20.670Z,5.65
2024-03-05T03:00:34.159Z,5.63
2024-03-05T03:00:47.214Z,5.63
2024-03-05T03:01:00.651Z,5.63
2024-03-05T03:01:14.699Z,5.63
2024-03-05T03:01:28.130Z,5.63
2024-03-05T03:01:41.047Z,5.62
2024-03-05T03:01:54.081Z,5.61
2024-03-05T03:02:07.122Z,5.62
2024-03-05T03:02:21.594Z,5.61
2024-03-05T03:02:35.857Z,5.61
2024-03-05T03:02:50.173Z,5.60
2024-03-05T03:03:03.269Z,5.62
2024-03-05T03:03:17.480Z,5.62
2024-03-05T03:03:30.778Z,5.61
2024-03-05T03:03:43.824Z,5.62
2024-03-05T03:03:56.782Z,5.61
2024-03-05T03:04:12.170Z,5.61
2024-03-05T03:04:26.732Z,5.60
2024-03-05T03:04:40.555Z,5.60
2024-03-05T03:04:53.596Z,5.60
2024-03-05T03:05:07.540Z,5.59
2024-03-05T03:05:22.851Z,5.59